Time;durP1;ratioP1;P1;durP2;ratioP2;P2;SDS_P1;SDS_P2;PMS_P1;PMS_P2;Temp;Humidity;BMP_temperature;BMP_pressure;BME280_temperature;BME280_humidity;BME280_pressure;Samples;Min_cycle;Max_cycle;Signal;HPM_P1;HPM_P2
2023/09/05 00:01:13;;;;;;;3.73;3.53;;;18.30;99.90;;;;;;5050617;28;20297;-54
2023/09/05 00:03:40;;;;;;;3.13;3.03;;;18.30;99.90;;;;;;5050472;28;20202;-54
2023/09/05 00:06:10;;;;;;;2.80;2.60;;;18.40;99.90;;;;;;5050156;28;20233;-54
2023/09/05 00:08:38;;;;;;;3.00;2.90;;;18.40;99.90;;;;;;5048479;28;20243;-54
2023/09/05 00:11:06;;;;;;;3.27;3.13;;;18.30;99.90;;;;;;5048736;28;20208;-54
2023/09/05 00:13:33;;;;;;;3.63;3.43;;;18.10;99.90;;;;;;5045095;28;20729;-54
2023/09/05 00:16:01;;;;;;;2.37;2.37;;;18.10;99.90;;;;;;5048881;28;20229;-54
2023/09/05 00:18:28;;;;;;;3.47;3.27;;;18.00;99.90;;;;;;5049304;28;20221;-54
2023/09/05 00:20:55;;;;;;;3.17;3.03;;;17.90;99.90;;;;;;5050058;28;20201;-54
2023/09/05 00:23:24;;;;;;;3.43;3.30;;;17.90;99.90;;;;;;5049475;28;20299;-54
2023/09/05 00:25:51;;;;;;;3.77;3.57;;;17.90;99.90;;;;;;5050943;28;20225;-54
2023/09/05 00:28:21;;;;;;;3.33;3.00;;;17.90;99.90;;;;;;5050377;28;20635;-54
2023/09/05 00:30:49;;;;;;;3.40;3.23;;;17.80;99.90;;;;;;5051119;28;20252;-54
2023/09/05 00:33:21;;;;;;;3.23;3.13;;;17.80;99.90;;;;;;5042852;28;20237;-54
2023/09/05 00:35:48;;;;;;;3.07;2.97;;;17.70;99.90;;;;;;5050753;28;20222;-54
2023/09/05 00:38:19;;;;;;;3.50;3.30;;;17.70;99.90;;;;;;5050784;28;20217;-54
2023/09/05 00:40:48;;;;;;;3.60;3.40;;;17.70;99.90;;;;;;5050909;28;20212;-56
2023/09/05 00:43:15;;;;;;;4.33;4.10;;;17.60;99.90;;;;;;5041536;28;20259;-56
2023/09/05 00:45:46;;;;;;;3.20;3.10;;;17.60;99.90;;;;;;5039497;28;21373;-56
2023/09/05 00:48:17;;;;;;;3.43;3.23;;;17.60;99.90;;;;;;5047249;28;20213;-56
2023/09/05 00:50:45;;;;;;;3.47;3.33;;;17.50;99.90;;;;;;5049862;28;20216;-56
2023/09/05 00:53:12;;;;;;;3.93;3.73;;;17.50;99.90;;;;;;5050054;28;20520;-56
2023/09/05 00:55:40;;;;;;;3.80;3.47;;;17.50;99.90;;;;;;5052656;28;20221;-56
2023/09/05 00:58:07;;;;;;;3.73;3.43;;;17.50;99.90;;;;;;5052556;28;20271;-56
2023/09/05 01:00:33;;;;;;;3.80;3.57;;;17.50;99.90;;;;;;5045220;28;20199;-56
2023/09/05 01:03:00;;;;;;;3.73;3.53;;;17.60;99.90;;;;;;5052778;28;20197;-56
2023/09/05 01:05:31;;;;;;;3.80;3.70;;;17.60;99.90;;;;;;5054686;28;20221;-56
2023/09/05 01:08:05;;;;;;;3.33;3.23;;;17.60;99.90;;;;;;5052140;28;20207;-56
2023/09/05 01:10:42;;;;;;;4.00;3.80;;;17.70;99.90;;;;;;5053073;28;20202;-56
2023/09/05 01:13:09;;;;;;;3.67;3.57;;;17.80;99.90;;;;;;5052383;28;20201;-56
2023/09/05 01:15:36;;;;;;;4.13;3.63;;;17.80;99.90;;;;;;5054038;28;20630;-55
2023/09/05 01:18:04;;;;;;;3.70;3.50;;;17.80;99.90;;;;;;5054177;28;20287;-56
2023/09/05 01:20:41;;;;;;;3.47;3.27;;;17.70;99.90;;;;;;5054734;28;20201;-56
2023/09/05 01:23:21;;;;;;;4.00;3.70;;;17.60;99.90;;;;;;5051522;28;20289;-56
2023/09/05 01:25:49;;;;;;;4.47;4.07;;;17.40;99.90;;;;;;5052228;28;20653;-56
2023/09/05 01:28:23;;;;;;;3.77;3.63;;;17.30;99.90;;;;;;5054086;28;20607;-56
2023/09/05 01:30:50;;;;;;;3.97;3.77;;;17.30;99.90;;;;;;5054134;28;20297;-56
2023/09/05 01:33:19;;;;;;;3.60;3.50;;;17.20;99.90;;;;;;5052342;28;20202;-55
2023/09/05 01:35:46;;;;;;;3.87;3.60;;;17.20;99.90;;;;;;5053796;28;20299;-56
2023/09/05 01:38:17;;;;;;;3.53;3.33;;;17.10;99.90;;;;;;5054068;28;20307;-56
2023/09/05 01:40:44;;;;;;;3.50;3.23;;;17.00;99.90;;;;;;5050688;28;20260;-55
2023/09/05 01:43:12;;;;;;;3.93;3.73;;;17.00;99.90;;;;;;5052652;28;20668;-56
2023/09/05 01:45:39;;;;;;;3.83;3.73;;;17.00;99.90;;;;;;5053756;28;20288;-56
2023/09/05 01:48:08;;;;;;;6.60;3.73;;;16.90;99.90;;;;;;5054046;28;20244;-56
2023/09/05 01:50:35;;;;;;;3.70;3.60;;;16.90;99.90;;;;;;5053089;28;20703;-56
2023/09/05 01:53:02;;;;;;;4.10;3.90;;;16.80;99.90;;;;;;5052912;28;20282;-56
2023/09/05 01:55:29;;;;;;;4.43;4.13;;;16.80;99.90;;;;;;5052760;28;20283;-56
2023/09/05 01:57:56;;;;;;;4.30;4.20;;;16.80;99.90;;;;;;5053791;28;20267;-56
2023/09/05 02:00:24;;;;;;;3.93;3.77;;;16.70;99.90;;;;;;5053629;28;20205;-55
2023/09/05 02:02:51;;;;;;;3.90;3.70;;;16.70;99.90;;;;;;5052096;28;20213;-56
2023/09/05 02:05:18;;;;;;;4.47;4.17;;;16.70;99.90;;;;;;5052674;28;20796;-56
2023/09/05 02:07:45;;;;;;;4.20;4.00;;;16.60;99.90;;;;;;5053561;28;20240;-56
2023/09/05 02:10:12;;;;;;;4.43;4.03;;;16.70;99.90;;;;;;5051846;28;20199;-56
2023/09/05 02:12:39;;;;;;;4.50;4.20;;;16.60;99.90;;;;;;5052557;28;20683;-56
2023/09/05 02:15:07;;;;;;;4.07;3.87;;;16.60;99.90;;;;;;5050521;28;20652;-56
2023/09/05 02:17:37;;;;;;;3.90;3.80;;;16.50;99.90;;;;;;5053314;28;20194;-56
2023/09/05 02:20:04;;;;;;;4.97;4.57;;;16.50;99.90;;;;;;5053324;28;20205;-56
2023/09/05 02:31:48;;;;;;;4.67;4.30;;;16.40;99.90;;;;;;5045304;28;20235;-56
2023/09/05 02:34:16;;;;;;;4.83;4.43;;;16.40;99.90;;;;;;5052437;28;20744;-56
2023/09/05 02:36:43;;;;;;;4.33;4.10;;;16.40;99.90;;;;;;5052773;28;20252;-55
2023/09/05 02:39:10;;;;;;;4.40;4.20;;;16.40;99.90;;;;;;5052899;28;20221;-56
2023/09/05 02:41:36;;;;;;;4.70;4.30;;;16.40;99.90;;;;;;5036466;28;20660;-55
2023/09/05 02:44:04;;;;;;;4.10;3.90;;;16.40;99.90;;;;;;5044349;28;20197;-56
2023/09/05 02:46:31;;;;;;;3.83;3.47;;;16.30;99.90;;;;;;5052438;28;20226;-56
2023/09/05 02:48:57;;;;;;;3.97;3.77;;;16.40;99.90;;;;;;5052741;28;20194;-56
2023/09/05 02:51:26;;;;;;;4.37;4.07;;;16.40;99.90;;;;;;5052664;28;20579;-56
2023/09/05 02:53:56;;;;;;;5.00;4.67;;;16.30;99.90;;;;;;5042252;28;20626;-56
2023/09/05 02:56:23;;;;;;;5.03;4.73;;;16.30;99.90;;;;;;5040014;28;20603;-56
2023/09/05 02:58:50;;;;;;;6.33;5.87;;;16.30;99.90;;;;;;5032511;28;20218;-56
2023/09/05 03:01:17;;;;;;;5.47;5.07;;;16.30;99.90;;;;;;5032576;28;20576;-55
2023/09/05 03:03:44;;;;;;;4.70;4.40;;;16.20;99.90;;;;;;5032535;28;20739;-56
2023/09/05 03:06:12;;;;;;;5.57;5.20;;;16.20;99.90;;;;;;5038254;28;20640;-56
2023/09/05 03:08:42;;;;;;;5.13;4.77;;;16.20;99.90;;;;;;5030389;28;20237;-55
2023/09/05 03:11:09;;;;;;;5.73;5.23;;;16.20;99.90;;;;;;5032355;28;20673;-55
2023/09/05 03:13:36;;;;;;;5.90;4.30;;;16.20;99.90;;;;;;5032148;28;20210;-56
2023/09/05 03:16:02;;;;;;;5.40;5.00;;;16.30;99.90;;;;;;5031667;28;20276;-56
2023/09/05 03:18:29;;;;;;;5.17;4.87;;;16.30;99.90;;;;;;5041595;28;20689;-55
2023/09/05 03:20:56;;;;;;;5.47;5.17;;;16.30;99.90;;;;;;5043775;28;20256;-56
2023/09/05 03:23:24;;;;;;;5.77;5.40;;;16.30;99.90;;;;;;5050170;28;20236;-55
2023/09/05 03:25:53;;;;;;;5.30;5.00;;;16.20;99.90;;;;;;5036661;28;20226;-56
2023/09/05 03:28:20;;;;;;;4.23;3.93;;;16.20;99.90;;;;;;5043643;28;20293;-56
2023/09/05 03:30:47;;;;;;;5.47;4.97;;;16.20;99.90;;;;;;5044287;28;20210;-55
2023/09/05 03:33:14;;;;;;;4.70;4.30;;;16.10;99.90;;;;;;5042448;28;20203;-56
2023/09/05 03:35:42;;;;;;;4.83;4.43;;;16.20;99.90;;;;;;5051268;28;20279;-56
2023/09/05 03:38:09;;;;;;;4.93;4.67;;;16.10;99.90;;;;;;5051517;28;20317;-56
2023/09/05 03:40:36;;;;;;;4.90;4.57;;;16.10;99.90;;;;;;5051747;28;20741;-56
2023/09/05 03:43:05;;;;;;;5.50;5.10;;;16.00;99.90;;;;;;5046778;28;20260;-55
2023/09/05 03:45:32;;;;;;;6.00;5.50;;;16.00;99.90;;;;;;5039249;28;20222;-55
2023/09/05 03:48:00;;;;;;;5.03;4.73;;;16.00;99.90;;;;;;5048769;28;20243;-55
2023/09/05 03:50:26;;;;;;;5.47;5.07;;;16.20;99.90;;;;;;5051596;28;20206;-56
2023/09/05 03:52:53;;;;;;;5.33;5.03;;;16.10;99.90;;;;;;5051423;28;20263;-56
2023/09/05 03:55:20;;;;;;;6.40;5.80;;;16.10;99.90;;;;;;5051064;28;20280;-56
2023/09/05 03:57:47;;;;;;;4.43;4.23;;;16.00;99.90;;;;;;5039567;28;20294;-55
2023/09/05 04:00:16;;;;;;;5.10;4.70;;;16.00;99.90;;;;;;5050579;28;20202;-56
2023/09/05 04:02:43;;;;;;;5.43;5.03;;;16.00;99.90;;;;;;5051506;28;20213;-56
2023/09/05 04:05:11;;;;;;;4.57;4.30;;;16.00;99.90;;;;;;5050754;28;20276;-56
2023/09/05 04:07:37;;;;;;;6.13;4.70;;;16.10;99.90;;;;;;5051655;28;20198;-56
2023/09/05 04:10:05;;;;;;;4.33;4.03;;;16.20;99.90;;;;;;5032986;28;20198;-56
2023/09/05 04:12:32;;;;;;;4.00;3.70;;;16.30;99.90;;;;;;5031132;28;20260;-56
2023/09/05 04:14:59;;;;;;;4.53;4.13;;;16.40;99.90;;;;;;5030636;28;20222;-55
2023/09/05 04:17:28;;;;;;;5.33;4.80;;;16.40;99.90;;;;;;5031342;28;20198;-56
2023/09/05 04:19:55;;;;;;;4.73;4.43;;;16.40;99.90;;;;;;5031241;28;20219;-55
2023/09/05 04:22:24;;;;;;;5.00;4.60;;;16.30;99.90;;;;;;5022793;28;20689;-56
2023/09/05 04:24:55;;;;;;;5.20;4.80;;;16.30;99.90;;;;;;5021910;28;20226;-56
2023/09/05 04:27:23;;;;;;;4.50;4.30;;;16.20;99.90;;;;;;5013951;28;20340;-56
2023/09/05 04:29:53;;;;;;;7.83;4.63;;;16.20;99.90;;;;;;5028812;28;20235;-56
2023/09/05 04:32:27;;;;;;;5.00;4.63;;;16.20;99.90;;;;;;5034922;28;20607;-56
2023/09/05 04:34:57;;;;;;;4.37;4.13;;;16.20;99.90;;;;;;5034636;28;20577;-56
2023/09/05 04:37:24;;;;;;;4.87;4.43;;;16.10;99.90;;;;;;5026243;28;20255;-56
2023/09/05 04:39:51;;;;;;;5.27;4.87;;;16.10;99.90;;;;;;5034387;28;20226;-56
2023/09/05 04:42:18;;;;;;;8.27;6.07;;;16.10;99.90;;;;;;5034728;28;20202;-56
2023/09/05 04:44:45;;;;;;;5.10;4.80;;;16.00;99.90;;;;;;5034360;28;20222;-56
2023/09/05 04:47:23;;;;;;;4.83;4.53;;;16.00;99.90;;;;;;5036861;28;20198;-56
2023/09/05 04:49:50;;;;;;;5.33;5.03;;;16.00;99.90;;;;;;5030641;28;20255;-56
2023/09/05 04:52:19;;;;;;;5.00;4.80;;;16.00;99.90;;;;;;5027711;28;20211;-56
2023/09/05 04:54:46;;;;;;;5.17;4.87;;;16.00;99.90;;;;;;5021225;28;20222;-56
2023/09/05 04:57:14;;;;;;;4.90;4.60;;;15.90;99.90;;;;;;5034317;28;20272;-56
2023/09/05 04:59:43;;;;;;;4.40;4.13;;;15.90;99.90;;;;;;5034581;28;20312;-56
2023/09/05 05:02:10;;;;;;;5.30;5.00;;;15.80;99.90;;;;;;5032554;28;20294;-56
2023/09/05 05:04:38;;;;;;;5.20;4.80;;;15.80;99.90;;;;;;5032108;28;20250;-56
2023/09/05 05:07:05;;;;;;;4.50;4.20;;;15.80;99.90;;;;;;5025017;28;20202;-56
2023/09/05 05:09:33;;;;;;;4.77;4.57;;;15.80;99.90;;;;;;5029984;28;20225;-56
2023/09/05 05:12:00;;;;;;;4.97;4.57;;;15.80;99.90;;;;;;5032968;28;20210;-56
2023/09/05 05:14:29;;;;;;;4.80;4.40;;;15.80;99.90;;;;;;5033275;28;20198;-55
2023/09/05 05:16:56;;;;;;;4.73;4.43;;;15.80;99.90;;;;;;5034208;28;20203;-55
2023/09/05 05:19:23;;;;;;;6.13;5.70;;;15.80;99.90;;;;;;5025205;28;20592;-55
2023/09/05 05:21:50;;;;;;;6.80;6.30;;;15.80;99.90;;;;;;5029791;28;20207;-55
2023/09/05 05:24:17;;;;;;;6.90;6.30;;;15.90;99.90;;;;;;5024348;28;20206;-55
2023/09/05 05:26:46;;;;;;;5.90;5.60;;;15.90;99.90;;;;;;5032199;28;20202;-55
2023/09/05 05:29:14;;;;;;;4.73;4.43;;;16.00;99.90;;;;;;5032755;28;20199;-55
2023/09/05 05:31:41;;;;;;;5.47;4.97;;;16.10;99.90;;;;;;5027822;28;20234;-56
2023/09/05 05:34:08;;;;;;;7.40;5.43;;;16.10;99.90;;;;;;5031363;28;20207;-56
2023/09/05 05:36:35;;;;;;;5.40;5.10;;;16.10;99.90;;;;;;5033788;28;20218;-56
2023/09/05 05:39:03;;;;;;;4.97;4.50;;;16.20;99.90;;;;;;5033265;28;20218;-55
2023/09/05 05:41:31;;;;;;;5.20;4.90;;;16.20;99.90;;;;;;5030134;28;20256;-55
2023/09/05 05:43:59;;;;;;;4.43;4.20;;;16.70;99.90;;;;;;5030063;28;20674;-55
2023/09/05 05:46:26;;;;;;;5.43;5.00;;;17.60;99.90;;;;;;5024912;28;20219;-55
2023/09/05 05:48:56;;;;;;;5.70;5.30;;;18.80;99.90;;;;;;5033254;28;20253;-55
2023/09/05 05:51:23;;;;;;;5.07;4.77;;;19.80;99.90;;;;;;5029810;28;20249;-55
2023/09/05 05:53:50;;;;;;;7.03;5.23;;;20.70;99.90;;;;;;5029203;28;20210;-55
2023/09/05 05:56:17;;;;;;;7.73;4.77;;;21.70;99.90;;;;;;5032824;28;20218;-56
2023/09/05 05:58:45;;;;;;;5.50;5.00;;;22.50;99.90;;;;;;5033340;28;20230;-55
2023/09/05 06:01:13;;;;;;;4.47;4.20;;;23.20;99.90;;;;;;5025025;28;20209;-56
2023/09/05 06:03:40;;;;;;;5.60;5.13;;;23.70;99.90;;;;;;5032201;28;20206;-56
2023/09/05 06:06:07;;;;;;;4.70;4.40;;;24.40;99.90;;;;;;5031987;28;20288;-56
2023/09/05 06:08:34;;;;;;;6.07;4.13;;;24.80;99.90;;;;;;5033121;28;20225;-55
2023/09/05 06:11:01;;;;;;;3.93;3.73;;;25.00;99.90;;;;;;5033096;28;20214;-55
2023/09/05 06:13:28;;;;;;;4.17;3.50;;;25.20;99.90;;;;;;5033264;28;20199;-56
2023/09/05 06:15:56;;;;;;;3.30;2.90;;;25.70;99.90;;;;;;5032382;28;20705;-56
2023/09/05 06:18:24;;;;;;;3.40;3.10;;;25.70;99.90;;;;;;5032160;28;20258;-55
2023/09/05 06:20:51;;;;;;;4.00;3.70;;;26.10;99.90;;;;;;5020364;28;20453;-67
2023/09/05 06:23:18;;;;;;;3.87;3.23;;;26.30;99.90;;;;;;5023487;28;20210;-69
2023/09/05 06:25:45;;;;;;;3.77;3.33;;;27.00;99.90;;;;;;5032445;28;20364;-56
2023/09/05 06:28:12;;;;;;;4.47;3.23;;;26.80;99.90;;;;;;5025070;28;20272;-57
2023/09/05 06:30:39;;;;;;;3.00;2.90;;;26.50;99.90;;;;;;5020434;28;20209;-56
2023/09/05 06:33:06;;;;;;;3.20;3.00;;;26.70;99.90;;;;;;5028719;28;20586;-56
2023/09/05 06:35:36;;;;;;;5.27;2.70;;;27.20;99.90;;;;;;5023191;28;20276;-71
2023/09/05 06:38:05;;;;;;;3.50;3.33;;;27.50;99.90;;;;;;5029109;28;20671;-71
2023/09/05 06:40:32;;;;;;;2.90;2.73;;;27.20;99.90;;;;;;5017158;28;20717;-70
2023/09/05 06:42:59;;;;;;;3.07;2.87;;;27.20;99.90;;;;;;5026689;28;20202;-69
2023/09/05 06:45:26;;;;;;;4.90;2.93;;;27.20;99.90;;;;;;5017677;28;20840;-66
2023/09/05 06:47:53;;;;;;;2.23;2.13;;;27.70;99.90;;;;;;5025681;28;20993;-65
2023/09/05 06:50:20;;;;;;;2.00;1.90;;;28.30;99.90;;;;;;5033808;28;20199;-67
2023/09/05 06:52:49;;;;;;;2.10;2.10;;;28.20;99.90;;;;;;5025131;28;20206;-65
2023/09/05 06:55:16;;;;;;;2.27;2.20;;;28.50;99.90;;;;;;5031567;28;20222;-65
2023/09/05 06:57:43;;;;;;;3.33;2.63;;;28.30;99.90;;;;;;5030213;28;20657;-67
2023/09/05 07:00:11;;;;;;;2.27;2.17;;;28.30;99.90;;;;;;5026065;28;20233;-67
2023/09/05 07:02:38;;;;;;;2.63;2.20;;;29.00;99.90;;;;;;5031070;28;20297;-66
2023/09/05 07:05:06;;;;;;;4.75;2.70;;;29.50;99.90;;;;;;5024735;28;20218;-63
2023/09/05 07:07:32;;;;;;;3.53;2.40;;;29.30;99.90;;;;;;5019009;28;20256;-66
2023/09/05 07:10:01;;;;;;;2.35;2.17;;;29.10;99.90;;;;;;5025303;28;20723;-66
2023/09/05 07:12:28;;;;;;;2.70;2.60;;;28.90;99.90;;;;;;5027738;28;20198;-68
2023/09/05 07:14:55;;;;;;;2.33;2.23;;;29.00;99.90;;;;;;5027529;28;20222;-64
2023/09/05 07:17:22;;;;;;;2.95;2.08;;;28.90;99.90;;;;;;5024738;28;20597;-64
2023/09/05 07:19:49;;;;;;;2.00;2.00;;;29.50;99.90;;;;;;5020223;28;20223;-66
2023/09/05 07:22:16;;;;;;;3.50;2.53;;;29.50;99.90;;;;;;5011913;28;20206;-64
2023/09/05 07:24:42;;;;;;;2.13;2.08;;;29.10;99.90;;;;;;5011553;28;20223;-63
2023/09/05 07:27:11;;;;;;;2.65;2.45;;;29.40;99.90;;;;;;5011622;28;20689;-62
2023/09/05 07:29:38;;;;;;;2.85;2.72;;;29.30;99.90;;;;;;5022748;28;20290;-64
2023/09/05 07:32:06;;;;;;;2.95;2.53;;;29.90;99.90;;;;;;5026778;28;20206;-57
2023/09/05 07:34:33;;;;;;;2.65;2.60;;;30.00;99.90;;;;;;5014430;28;20218;-57
2023/09/05 07:37:00;;;;;;;3.00;2.80;;;29.40;99.60;;;;;;5037847;28;20255;-58
2023/09/05 07:39:27;;;;;;;4.47;2.65;;;29.40;99.90;;;;;;5009982;28;20277;-57
2023/09/05 07:41:53;;;;;;;2.65;2.55;;;30.00;99.50;;;;;;5025934;28;20313;-57
2023/09/05 07:44:22;;;;;;;2.20;2.20;;;30.00;99.10;;;;;;5036705;28;20252;-58
2023/09/05 07:46:49;;;;;;;2.15;2.05;;;30.60;98.30;;;;;;5029605;28;20261;-57
2023/09/05 07:49:16;;;;;;;2.95;2.78;;;31.00;98.40;;;;;;5049761;28;20273;-57
2023/09/05 07:51:43;;;;;;;2.88;2.75;;;31.20;97.70;;;;;;5051706;28;20293;-57
2023/09/05 07:54:14;;;;;;;3.08;2.88;;;30.30;98.00;;;;;;5037141;28;20294;-57
2023/09/05 07:56:41;;;;;;;2.90;2.70;;;30.10;98.70;;;;;;5043163;28;20205;-57
2023/09/05 07:59:08;;;;;;;2.72;2.53;;;30.10;98.40;;;;;;5044038;28;20665;-57
2023/09/05 08:01:37;;;;;;;3.45;3.25;;;30.40;98.60;;;;;;5043092;28;20198;-57
2023/09/05 08:04:04;;;;;;;2.97;2.78;;;30.90;97.30;;;;;;5037788;28;20203;-57
2023/09/05 08:06:31;;;;;;;3.22;2.95;;;30.80;97.10;;;;;;5042964;28;20272;-57
2023/09/05 08:08:58;;;;;;;3.33;3.13;;;30.90;96.90;;;;;;5051345;28;20252;-57
2023/09/05 08:11:25;;;;;;;3.28;3.05;;;30.70;96.40;;;;;;5051369;28;20284;-57
2023/09/05 08:13:52;;;;;;;3.70;2.88;;;30.80;97.00;;;;;;5040907;28;20203;-57
2023/09/05 08:16:19;;;;;;;3.25;2.95;;;31.10;96.60;;;;;;5031536;28;20614;-57
2023/09/05 08:18:48;;;;;;;3.90;3.65;;;31.20;96.50;;;;;;5045923;28;20632;-57
2023/09/05 08:21:16;;;;;;;2.88;2.78;;;30.70;96.80;;;;;;5044197;28;20701;-57
2023/09/05 08:23:44;;;;;;;4.22;4.13;;;30.80;96.80;;;;;;5042111;28;20206;-57
2023/09/05 08:26:11;;;;;;;3.10;2.90;;;30.60;96.50;;;;;;5042670;28;20305;-57
2023/09/05 08:28:42;;;;;;;3.80;3.63;;;30.60;96.70;;;;;;5029163;28;20741;-57
2023/09/05 08:31:09;;;;;;;4.05;3.55;;;30.30;96.70;;;;;;5028579;28;20762;-57
2023/09/05 08:33:36;;;;;;;2.95;2.85;;;30.40;97.00;;;;;;5021359;28;20195;-57
2023/09/05 08:36:08;;;;;;;3.58;3.33;;;30.50;97.00;;;;;;5020776;28;20608;-57
2023/09/05 08:38:37;;;;;;;4.45;4.20;;;30.80;96.90;;;;;;5023389;28;20245;-57
2023/09/05 08:41:06;;;;;;;3.25;2.95;;;31.00;97.00;;;;;;5029749;28;20241;-57
2023/09/05 08:43:33;;;;;;;3.05;2.95;;;29.50;97.60;;;;;;5028715;28;20205;-57
2023/09/05 08:46:02;;;;;;;4.75;3.50;;;29.90;98.80;;;;;;5030188;28;20280;-57
2023/09/05 08:48:29;;;;;;;3.40;3.30;;;30.30;97.20;;;;;;5028784;28;20280;-57
2023/09/05 08:50:59;;;;;;;3.90;3.60;;;30.70;97.20;;;;;;5022692;28;20195;-57
2023/09/05 08:53:36;;;;;;;3.42;2.80;;;30.50;97.00;;;;;;5022628;28;20198;-57
2023/09/05 08:56:03;;;;;;;5.38;3.78;;;30.80;97.50;;;;;;5029904;28;20782;-57
2023/09/05 08:58:32;;;;;;;7.90;4.05;;;31.40;96.30;;;;;;5030571;28;20207;-57
2023/09/05 09:00:59;;;;;;;4.10;3.90;;;31.20;96.50;;;;;;5024001;28;20285;-57
2023/09/05 09:03:26;;;;;;;3.75;3.55;;;30.90;96.30;;;;;;5023966;28;20632;-58
2023/09/05 09:05:54;;;;;;;3.70;3.28;;;30.30;96.60;;;;;;5022075;28;20253;-57
2023/09/05 09:08:20;;;;;;;4.15;3.75;;;30.20;96.80;;;;;;5037885;28;20225;-58
2023/09/05 09:11:07;;;;;;;5.60;3.65;;;30.00;97.30;;;;;;5027215;28;20258;-58
2023/09/05 09:13:34;;;;;;;8.63;3.63;;;30.50;97.50;;;;;;5029877;28;20230;-57
2023/09/05 09:16:02;;;;;;;4.13;3.83;;;30.70;96.70;;;;;;5032954;28;20226;-57
2023/09/05 09:18:31;;;;;;;5.18;3.63;;;30.00;96.30;;;;;;5022729;28;20208;-57
2023/09/05 09:21:02;;;;;;;3.78;3.45;;;29.10;98.50;;;;;;5018303;28;20223;-57
2023/09/05 09:23:30;;;;;;;4.72;4.35;;;29.40;99.00;;;;;;5026408;28;20211;-57
2023/09/05 09:25:58;;;;;;;4.05;3.63;;;29.90;97.90;;;;;;5033653;28;20222;-57
2023/09/05 09:28:28;;;;;;;3.53;3.30;;;30.30;97.00;;;;;;5035537;28;20221;-57
2023/09/05 09:30:57;;;;;;;4.43;4.13;;;30.00;97.70;;;;;;5033870;28;20210;-57
2023/09/05 09:33:24;;;;;;;4.97;4.05;;;30.10;96.90;;;;;;5028961;28;20211;-57
2023/09/05 09:36:08;;;;;;;3.63;3.42;;;30.10;97.30;;;;;;5021971;28;20223;-57
2023/09/05 09:38:36;;;;;;;4.38;4.07;;;29.90;98.60;;;;;;5026687;28;20206;-57
2023/09/05 09:41:06;;;;;;;4.20;3.60;;;30.20;98.70;;;;;;5034103;28;20222;-58
2023/09/05 09:43:35;;;;;;;4.57;4.28;;;30.60;98.50;;;;;;5029023;28;20206;-57
2023/09/05 09:46:04;;;;;;;5.40;5.07;;;30.90;96.60;;;;;;5021343;28;20650;-57
2023/09/05 09:48:33;;;;;;;4.82;4.50;;;30.80;96.10;;;;;;5033675;28;20241;-57
2023/09/05 09:51:01;;;;;;;4.38;4.18;;;30.30;97.40;;;;;;5023784;28;20208;-57
2023/09/05 09:53:35;;;;;;;4.68;4.28;;;29.30;98.60;;;;;;5014032;28;20273;-56
2023/09/05 09:56:09;;;;;;;4.28;4.07;;;29.40;98.30;;;;;;5029674;28;20233;-57
2023/09/05 09:58:41;;;;;;;3.95;3.65;;;29.80;98.30;;;;;;5033600;28;20193;-57
2023/09/05 10:01:11;;;;;;;4.28;4.07;;;29.80;98.70;;;;;;5033312;28;20214;-57
2023/09/05 10:03:40;;;;;;;3.83;3.63;;;29.80;98.80;;;;;;5033234;28;20203;-57
2023/09/05 10:06:08;;;;;;;5.43;4.93;;;29.70;99.60;;;;;;5024929;28;20782;-57
2023/09/05 10:08:36;;;;;;;4.80;4.50;;;29.70;98.90;;;;;;5026365;28;20202;-57
2023/09/05 10:11:03;;;;;;;5.30;4.93;;;29.20;98.80;;;;;;5033265;28;20194;-57
2023/09/05 10:13:35;;;;;;;4.60;4.40;;;28.60;99.70;;;;;;5033156;28;20199;-57
2023/09/05 10:16:04;;;;;;;5.28;5.00;;;27.90;99.90;;;;;;5032620;28;20291;-57
2023/09/05 10:18:32;;;;;;;5.57;5.07;;;28.50;99.90;;;;;;5025741;28;20582;-57
2023/09/05 10:21:01;;;;;;;4.18;3.97;;;28.30;99.90;;;;;;5032830;28;20309;-57
2023/09/05 10:23:31;;;;;;;4.53;4.18;;;28.40;99.90;;;;;;5023869;28;20238;-57
2023/09/05 10:26:00;;;;;;;5.07;4.60;;;29.10;99.90;;;;;;5016758;28;20223;-58
2023/09/05 10:28:28;;;;;;;5.20;4.75;;;29.60;99.90;;;;;;5027882;28;20225;-58
2023/09/05 10:31:06;;;;;;;4.65;4.25;;;29.70;98.60;;;;;;5026151;28;20640;-57
2023/09/05 10:33:37;;;;;;;3.97;3.83;;;30.00;98.40;;;;;;5030466;28;20281;-57
2023/09/05 10:36:04;;;;;;;4.78;4.47;;;30.30;98.30;;;;;;5015806;28;20227;-57
2023/09/05 10:38:36;;;;;;;4.28;4.03;;;30.70;97.60;;;;;;5031079;28;20249;-57
2023/09/05 10:41:03;;;;;;;7.18;4.63;;;30.70;98.70;;;;;;5026805;28;20225;-57
2023/09/05 10:43:30;;;;;;;4.72;4.40;;;30.60;97.90;;;;;;5025019;28;20199;-57
2023/09/05 10:45:59;;;;;;;5.00;4.72;;;29.90;98.90;;;;;;5031428;28;20272;-57
2023/09/05 10:48:36;;;;;;;6.20;5.80;;;29.50;99.20;;;;;;5032583;28;20245;-56
2023/09/05 10:51:11;;;;;;;5.05;4.78;;;29.00;99.90;;;;;;5032422;28;20198;-57
2023/09/05 10:53:40;;;;;;;6.00;5.53;;;28.50;99.90;;;;;;5028891;28;20209;-57
2023/09/05 10:56:38;;;;;;;5.65;5.25;;;28.10;99.90;;;;;;5022901;28;20372;-56
2023/09/05 10:59:10;;;;;;;4.78;4.28;;;27.10;99.90;;;;;;5015732;28;20207;-56
2023/09/05 11:01:47;;;;;;;5.87;5.47;;;27.10;99.90;;;;;;5014085;28;20225;-56
2023/09/05 11:04:26;;;;;;;5.63;5.23;;;26.00;99.90;;;;;;5031982;28;20680;-57
2023/09/05 11:06:57;;;;;;;5.33;4.93;;;25.60;99.90;;;;;;5027539;28;20210;-56
2023/09/05 11:09:25;;;;;;;4.87;4.67;;;25.30;99.90;;;;;;5032173;28;20272;-56
2023/09/05 11:11:53;;;;;;;5.13;4.73;;;25.20;99.90;;;;;;5023359;28;20286;-57
2023/09/05 11:14:34;;;;;;;4.60;4.40;;;25.50;99.90;;;;;;5022007;28;20297;-57
2023/09/05 11:17:02;;;;;;;5.63;5.23;;;25.20;99.90;;;;;;5031950;28;20210;-57
2023/09/05 11:19:32;;;;;;;5.77;5.20;;;25.30;99.90;;;;;;5024011;28;20203;-57
2023/09/05 11:22:14;;;;;;;5.43;5.13;;;25.40;99.90;;;;;;5028749;28;20616;-56
2023/09/05 11:24:47;;;;;;;4.67;4.47;;;25.50;99.90;;;;;;5031344;28;20659;-56
2023/09/05 11:27:15;;;;;;;5.37;5.07;;;25.50;99.90;;;;;;5029872;28;20546;-56
2023/09/05 11:29:45;;;;;;;4.97;4.77;;;25.10;99.90;;;;;;5022926;28;20230;-56
2023/09/05 11:32:14;;;;;;;4.83;4.63;;;25.20;99.90;;;;;;5014311;28;20222;-57
2023/09/05 11:34:47;;;;;;;6.10;5.70;;;25.20;99.90;;;;;;5011541;28;20310;-57
2023/09/05 11:37:22;;;;;;;6.53;5.97;;;25.10;99.90;;;;;;5011732;28;20269;-57
2023/09/05 11:39:51;;;;;;;5.13;4.73;;;25.30;99.90;;;;;;5011036;28;20211;-57
2023/09/05 11:42:30;;;;;;;4.67;4.47;;;25.40;99.90;;;;;;5011816;28;20323;-57
2023/09/05 11:44:58;;;;;;;4.23;4.03;;;25.50;99.90;;;;;;5023835;28;20281;-56
2023/09/05 11:47:27;;;;;;;4.30;4.10;;;25.50;99.90;;;;;;5023164;28;20213;-57
2023/09/05 11:49:57;;;;;;;4.13;3.87;;;25.60;99.90;;;;;;5031366;28;20206;-57
2023/09/05 11:52:26;;;;;;;4.67;4.30;;;25.80;99.90;;;;;;5031491;28;20256;-57
2023/09/05 11:54:54;;;;;;;3.93;3.57;;;25.60;99.90;;;;;;5030942;28;20234;-57
2023/09/05 11:57:23;;;;;;;4.77;4.33;;;25.60;99.90;;;;;;5031272;28;20233;-57
2023/09/05 11:59:50;;;;;;;4.83;4.43;;;25.60;99.90;;;;;;5029962;28;20757;-57
2023/09/05 12:02:18;;;;;;;4.17;4.00;;;25.60;99.90;;;;;;5019217;28;20214;-57
2023/09/05 12:04:47;;;;;;;4.50;4.27;;;25.60;99.90;;;;;;5014755;28;20685;-57
2023/09/05 12:07:15;;;;;;;3.93;3.63;;;25.60;99.90;;;;;;5031065;28;20290;-56
2023/09/05 12:09:47;;;;;;;3.93;3.73;;;25.90;99.90;;;;;;5031201;28;20679;-57
2023/09/05 12:12:18;;;;;;;8.93;4.23;;;25.80;99.90;;;;;;5030940;28;20194;-57
2023/09/05 12:14:52;;;;;;;4.07;3.87;;;25.90;99.90;;;;;;5030575;28;20226;-57
2023/09/05 12:17:21;;;;;;;4.40;4.13;;;25.70;99.90;;;;;;5027119;28;20251;-57
2023/09/05 12:19:48;;;;;;;3.60;3.30;;;25.70;99.90;;;;;;5019430;28;20203;-56
2023/09/05 12:22:24;;;;;;;3.97;3.87;;;25.80;99.90;;;;;;5011148;28;20306;-56
2023/09/05 12:25:11;;;;;;;4.17;3.87;;;25.90;99.90;;;;;;5010771;28;20783;-57
2023/09/05 12:27:40;;;;;;;4.80;4.47;;;26.00;99.90;;;;;;5024117;28;20205;-57
2023/09/05 12:30:24;;;;;;;3.70;3.47;;;26.00;99.90;;;;;;5030926;28;20288;-57
2023/09/05 12:32:51;;;;;;;4.30;4.10;;;26.00;99.90;;;;;;5029160;28;20198;-57
2023/09/05 12:35:18;;;;;;;4.60;3.77;;;26.20;99.90;;;;;;5023261;28;20244;-57
2023/09/05 12:37:46;;;;;;;4.40;4.00;;;26.40;99.90;;;;;;5018507;28;20289;-57
2023/09/05 12:40:15;;;;;;;3.67;3.50;;;26.20;99.90;;;;;;5026931;28;20203;-57
2023/09/05 12:42:43;;;;;;;4.63;4.40;;;26.30;99.90;;;;;;5030878;28;20268;-57
2023/09/05 12:45:11;;;;;;;4.37;3.97;;;26.00;99.90;;;;;;5029376;28;20656;-57
2023/09/05 12:47:38;;;;;;;5.23;3.93;;;26.00;99.90;;;;;;5030847;28;20241;-57
2023/09/05 12:50:12;;;;;;;3.80;3.67;;;26.00;99.90;;;;;;5027858;28;20253;-57
2023/09/05 12:52:42;;;;;;;5.50;4.40;;;26.00;99.90;;;;;;5021880;28;20233;-56
2023/09/05 12:55:11;;;;;;;3.87;3.57;;;26.00;99.90;;;;;;5034312;28;20368;-57
2023/09/05 12:57:39;;;;;;;4.90;4.60;;;25.80;99.90;;;;;;5034652;28;20205;-57
2023/09/05 13:00:07;;;;;;;5.50;5.10;;;25.80;99.90;;;;;;5034636;28;20635;-57
2023/09/05 13:02:35;;;;;;;4.63;4.30;;;25.80;99.90;;;;;;5034395;28;20305;-57
2023/09/05 13:05:02;;;;;;;3.97;3.77;;;25.90;99.90;;;;;;5040504;28;20312;-56